createdAt,value
2019-01-25T00:00:57.421Z,60.92
2019-01-25T00:03:25.982Z,57.67
2019-01-25T00:05:54.589Z,65.60
2019-01-25T00:08:26.462Z,65.83
2019-01-25T00:10:55.028Z,53.85
2019-01-25T00:13:25.625Z,86.45
2019-01-25T00:15:54.534Z,60.78
2019-01-25T00:18:26.506Z,59.67
2019-01-25T00:20:55.998Z,58.40
2019-01-25T00:23:25.101Z,64.22
2019-01-25T00:25:54.804Z,55.67
2019-01-25T00:28:23.622Z,67.40
2019-01-25T00:30:52.269Z,60.63
2019-01-25T00:33:20.989Z,52.85
2019-01-25T00:35:49.586Z,68.42
2019-01-25T00:38:18.225Z,61.33
2019-01-25T00:40:46.887Z,65.42
2019-01-25T00:43:15.532Z,58.42
2019-01-25T00:45:44.125Z,60.80
2019-01-25T00:48:12.768Z,67.62
2019-01-25T00:50:41.802Z,69.60
2019-01-25T00:53:10.438Z,55.15
2019-01-25T00:55:39.066Z,62.75
2019-01-25T00:58:07.785Z,70.80
2019-01-25T01:00:36.502Z,53.78
2019-01-25T01:03:06.812Z,57.93
2019-01-25T01:05:35.445Z,54.98
2019-01-25T01:08:05.041Z,66.35
2019-01-25T01:10:33.639Z,66.47
2019-01-25T01:13:02.765Z,52.05
2019-01-25T01:15:31.731Z,71.07
2019-01-25T01:18:00.647Z,70.22
2019-01-25T01:20:29.561Z,56.85
2019-01-25T01:22:58.481Z,66.85
2019-01-25T01:25:27.049Z,53.38
2019-01-25T01:27:55.618Z,72.78
2019-01-25T01:30:24.597Z,57.50
2019-01-25T01:32:53.532Z,57.48
2019-01-25T01:35:22.136Z,59.40
2019-01-25T01:37:50.986Z,50.20
2019-01-25T01:40:22.415Z,67.75
2019-01-25T01:42:53.519Z,64.90
2019-01-25T01:45:22.375Z,59.70
2019-01-25T01:47:51.101Z,52.53
2019-01-25T01:50:20.314Z,60.40
2019-01-25T01:52:49.620Z,58.42
2019-01-25T01:55:18.284Z,57.67
2019-01-25T01:57:47.129Z,59.05
2019-01-25T02:00:43.561Z,57.43
2019-01-25T02:03:15.256Z,59.45
2019-01-25T02:05:44.130Z,59.93
2019-01-25T02:08:12.726Z,61.50
2019-01-25T02:10:41.323Z,60.23
2019-01-25T02:13:10.340Z,62.35
2019-01-25T02:15:39.232Z,51.00
2019-01-25T02:18:07.830Z,57.15
2019-01-25T02:20:36.390Z,57.83
2019-01-25T02:23:05.177Z,58.73
2019-01-25T02:25:34.205Z,55.95
2019-01-25T02:28:02.886Z,54.40
2019-01-25T02:30:32.159Z,70.70
2019-01-25T02:33:00.748Z,61.10
2019-01-25T02:35:29.628Z,55.12
2019-01-25T02:37:58.206Z,66.50
2019-01-25T02:40:27.379Z,70.67
2019-01-25T02:42:56.016Z,62.60
2019-01-25T02:45:25.643Z,64.03
2019-01-25T02:47:54.716Z,67.87
2019-01-25T02:50:23.305Z,54.03
2019-01-25T02:52:53.618Z,59.05
2019-01-25T02:55:24.809Z,61.73
2019-01-25T02:57:53.424Z,66.22
2019-01-25T03:00:26.287Z,62.30
2019-01-25T03:02:55.550Z,63.80
2019-01-25T03:05:27.272Z,62.78
2019-01-25T03:07:58.529Z,53.98
2019-01-25T03:10:29.098Z,64.97
2019-01-25T03:12:57.543Z,65.15
2019-01-25T03:15:26.839Z,57.48
2019-01-25T03:17:56.037Z,55.80
2019-01-25T03:20:24.942Z,66.02
2019-01-25T03:22:56.797Z,57.70
2019-01-25T03:25:26.636Z,57.73
2019-01-25T03:27:55.450Z,50.43
2019-01-25T03:30:25.818Z,52.00
2019-01-25T03:32:54.542Z,66.90
2019-01-25T03:35:24.828Z,69.40
2019-01-25T03:37:53.828Z,63.05
2019-01-25T03:40:24.458Z,51.50
2019-01-25T03:42:53.469Z,60.30
2019-01-25T03:45:27.478Z,66.20
2019-01-25T03:47:56.305Z,64.47
2019-01-25T03:50:26.907Z,56.60
2019-01-25T03:52:58.560Z,65.20
2019-01-25T03:55:27.862Z,57.58
2019-01-25T03:57:56.565Z,75.28
2019-01-25T04:00:29.626Z,60.63
2019-01-25T04:02:58.974Z,53.28
2019-01-25T04:05:27.796Z,72.80
2019-01-25T04:07:56.401Z,64.55
2019-01-25T04:10:26.996Z,66.37
2019-01-25T04:12:55.859Z,53.75
2019-01-25T04:15:29.654Z,68.87
2019-01-25T04:18:01.469Z,59.60
2019-01-25T04:20:33.062Z,72.17
2019-01-25T04:23:04.776Z,59.13
2019-01-25T04:25:33.567Z,64.22
2019-01-25T04:28:02.293Z,61.75
2019-01-25T04:30:33.567Z,65.30
2019-01-25T04:33:05.686Z,66.90
2019-01-25T04:35:35.474Z,51.70
2019-01-25T04:38:07.042Z,62.27
2019-01-25T04:40:38.290Z,70.08
2019-01-25T04:43:09.812Z,66.40
2019-01-25T04:45:41.119Z,76.22
2019-01-25T04:48:15.718Z,64.97
2019-01-25T04:50:47.237Z,70.57
2019-01-25T04:53:18.839Z,71.05
2019-01-25T04:55:47.451Z,67.90
2019-01-25T04:58:16.107Z,72.10
2019-01-25T05:00:44.724Z,68.05
2019-01-25T05:03:13.664Z,67.47
2019-01-25T05:05:42.313Z,78.40
2019-01-25T05:08:13.690Z,62.93
2019-01-25T05:10:42.413Z,64.42
2019-01-25T05:13:11.127Z,74.60
2019-01-25T05:15:39.845Z,63.85
2019-01-25T05:18:08.856Z,80.62
2019-01-25T05:20:37.680Z,70.22
2019-01-25T05:23:07.827Z,76.17
2019-01-25T05:25:36.522Z,69.72
2019-01-25T05:28:13.690Z,83.07
2019-01-25T05:31:00.313Z,64.82
2019-01-25T05:33:28.956Z,62.15
2019-01-25T05:35:57.630Z,69.80
2019-01-25T05:38:29.292Z,68.52
2019-01-25T05:40:58.151Z,74.10
2019-01-25T05:43:26.762Z,67.37
2019-01-25T05:45:55.485Z,77.78
2019-01-25T05:48:31.572Z,75.85
2019-01-25T05:51:03.166Z,82.30
2019-01-25T05:53:31.734Z,71.30
2019-01-25T05:56:00.401Z,71.85
2019-01-25T05:58:32.141Z,55.63
2019-01-25T06:01:00.835Z,68.35
2019-01-25T06:03:32.128Z,64.82
2019-01-25T06:06:01.240Z,64.80
2019-01-25T06:08:33.755Z,59.63
2019-01-25T06:11:06.854Z,78.75
2019-01-25T06:13:38.963Z,62.60
2019-01-25T06:16:07.631Z,69.05
2019-01-25T06:18:39.198Z,65.15
2019-01-25T06:21:11.124Z,80.80
2019-01-25T06:23:39.670Z,66.95
2019-01-25T06:26:11.203Z,76.65
2019-01-25T06:28:39.881Z,76.75
2019-01-25T06:31:08.624Z,68.22
2019-01-25T06:33:37.262Z,62.45
2019-01-25T06:36:06.171Z,74.32
2019-01-25T06:38:37.799Z,73.90
2019-01-25T06:41:06.541Z,83.55
2019-01-25T06:43:35.179Z,74.20
2019-01-25T06:46:03.850Z,64.32
2019-01-25T06:48:32.520Z,72.00
2019-01-25T06:51:04.466Z,57.05
2019-01-25T06:53:33.021Z,68.80
2019-01-25T06:56:01.589Z,80.47
2019-01-25T06:58:34.649Z,82.60
2019-01-25T07:01:04.895Z,73.83
2019-01-25T07:03:33.680Z,74.03
2019-01-25T07:06:02.318Z,80.55
2019-01-25T07:08:30.867Z,66.10
2019-01-25T07:11:03.802Z,66.22
2019-01-25T07:13:32.391Z,101.00
2019-01-25T07:16:00.969Z,81.70
2019-01-25T07:18:29.537Z,64.22
2019-01-25T07:20:58.103Z,69.53
2019-01-25T07:23:26.677Z,73.65
2019-01-25T07:25:55.237Z,66.95
2019-01-25T07:28:26.522Z,58.17
2019-01-25T07:30:55.124Z,78.70
2019-01-25T07:33:25.246Z,62.67
2019-01-25T07:35:56.561Z,78.78
2019-01-25T07:38:25.207Z,81.72
2019-01-25T07:40:56.503Z,72.90
2019-01-25T07:43:25.055Z,71.40
2019-01-25T07:45:56.450Z,74.45
2019-01-25T07:48:27.837Z,77.17
2019-01-25T07:50:56.457Z,105.52
2019-01-25T07:53:28.076Z,83.90
2019-01-25T07:55:59.448Z,68.72
2019-01-25T07:58:31.138Z,79.17
2019-01-25T08:01:02.661Z,77.85
2019-01-25T08:03:33.962Z,76.70
2019-01-25T08:06:02.505Z,83.67
2019-01-25T08:08:34.053Z,78.40
2019-01-25T08:11:02.963Z,76.28
2019-01-25T08:13:34.773Z,69.20
2019-01-25T08:16:06.212Z,69.03
2019-01-25T08:18:35.448Z,86.22
2019-01-25T08:21:08.020Z,85.50
2019-01-25T08:23:36.694Z,67.70
2019-01-25T08:26:08.085Z,66.30
2019-01-25T08:28:36.653Z,77.25
2019-01-25T08:31:06.177Z,77.62
2019-01-25T08:33:37.916Z,78.45
2019-01-25T08:36:06.584Z,82.78
2019-01-25T08:38:35.181Z,99.40
2019-01-25T08:41:03.885Z,87.70
2019-01-25T08:43:35.507Z,83.00
2019-01-25T08:46:07.068Z,87.47
2019-01-25T08:48:39.041Z,90.30
2019-01-25T08:51:10.531Z,75.22
2019-01-25T08:53:41.434Z,87.08
2019-01-25T08:56:09.607Z,81.10
2019-01-25T08:58:38.533Z,68.25
2019-01-25T09:01:10.119Z,77.32
2019-01-25T09:03:38.692Z,89.20
2019-01-25T09:06:10.184Z,68.95
2019-01-25T09:08:38.801Z,71.42
2019-01-25T09:11:10.443Z,69.25
2019-01-25T09:13:41.932Z,80.83
2019-01-25T09:16:10.701Z,87.35
2019-01-25T09:18:39.479Z,93.15
2019-01-25T09:21:11.070Z,83.87
2019-01-25T09:23:42.431Z,77.90
2019-01-25T09:26:14.202Z,76.95
2019-01-25T09:28:42.749Z,93.72
2019-01-25T09:31:11.392Z,91.95
2019-01-25T09:33:42.500Z,74.60
2019-01-25T09:36:11.101Z,78.75
2019-01-25T09:38:39.668Z,83.70
2019-01-25T09:41:08.692Z,72.32
2019-01-25T09:43:40.487Z,82.02
2019-01-25T09:46:12.429Z,76.35
2019-01-25T09:48:41.389Z,72.25
2019-01-25T09:51:12.918Z,80.72
2019-01-25T09:53:44.956Z,78.50
2019-01-25T09:56:13.589Z,71.87
2019-01-25T09:58:42.545Z,83.52
2019-01-25T10:01:14.223Z,75.57
2019-01-25T10:03:45.862Z,79.75
2019-01-25T10:06:22.457Z,55.05
2019-01-25T10:08:51.442Z,68.02
2019-01-25T10:11:20.044Z,78.25
2019-01-25T10:13:49.005Z,74.82
2019-01-25T10:16:17.579Z,59.98
2019-01-25T10:18:46.164Z,76.42
2019-01-25T10:21:14.726Z,71.12
2019-01-25T10:23:43.410Z,62.78
2019-01-25T10:26:12.016Z,67.35
2019-01-25T10:28:40.764Z,52.80
2019-01-25T10:31:09.568Z,51.00
2019-01-25T10:33:38.327Z,61.20
2019-01-25T10:36:07.100Z,47.03
2019-01-25T10:38:38.735Z,52.17
2019-01-25T10:41:07.789Z,59.35
2019-01-25T10:43:36.468Z,60.78
2019-01-25T10:46:07.886Z,61.83
2019-01-25T10:48:39.231Z,56.55
2019-01-25T10:51:10.866Z,65.85
2019-01-25T10:53:43.103Z,66.07
2019-01-25T10:56:14.497Z,62.97
2019-01-25T10:58:45.729Z,67.53
2019-01-25T11:01:14.353Z,63.38
2019-01-25T11:03:42.924Z,51.27
2019-01-25T11:06:11.535Z,50.78
2019-01-25T11:08:40.176Z,59.20
2019-01-25T11:11:09.411Z,63.50
2019-01-25T11:13:37.986Z,47.65
2019-01-25T11:16:11.934Z,63.25
2019-01-25T11:18:42.769Z,49.23
2019-01-25T11:21:14.078Z,50.85
2019-01-25T11:23:45.523Z,56.40
2019-01-25T11:26:14.394Z,49.10
2019-01-25T11:28:43.077Z,48.17
2019-01-25T11:31:14.548Z,48.48
2019-01-25T11:33:43.465Z,45.88
2019-01-25T11:36:12.115Z,42.93
2019-01-25T11:38:40.856Z,53.45
2019-01-25T11:41:09.561Z,46.68
2019-01-25T11:43:39.087Z,54.40
2019-01-25T11:46:07.734Z,45.43
2019-01-25T11:48:39.521Z,43.00
2019-01-25T11:51:10.906Z,52.05
2019-01-25T11:53:40.637Z,44.05
2019-01-25T11:56:12.096Z,43.25
2019-01-25T11:58:40.669Z,48.20
2019-01-25T12:01:09.367Z,45.65
2019-01-25T12:03:37.990Z,52.25
2019-01-25T12:06:09.595Z,47.10
2019-01-25T12:08:41.438Z,42.93
2019-01-25T12:11:17.502Z,50.77
2019-01-25T12:13:48.828Z,50.28
2019-01-25T12:16:17.484Z,47.95
2019-01-25T12:18:46.100Z,50.08
2019-01-25T12:21:17.448Z,47.90
2019-01-25T12:23:48.872Z,47.53
2019-01-25T12:26:20.242Z,43.87
2019-01-25T12:28:49.080Z,54.73
2019-01-25T12:31:18.545Z,52.60
2019-01-25T12:33:50.024Z,53.10
2019-01-25T12:36:18.739Z,48.80
2019-01-25T12:38:47.372Z,48.28
2019-01-25T12:41:16.071Z,45.70
2019-01-25T12:43:44.669Z,44.30
2019-01-25T12:46:16.044Z,45.78
2019-01-25T12:48:44.655Z,41.10
2019-01-25T12:51:16.567Z,45.08
2019-01-25T12:53:48.140Z,49.40
2019-01-25T12:56:19.720Z,49.10
2019-01-25T12:58:53.577Z,41.35
2019-01-25T13:01:22.953Z,48.15
2019-01-25T13:03:55.599Z,50.17
2019-01-25T13:06:24.993Z,50.63
2019-01-25T13:08:55.376Z,42.10
2019-01-25T13:11:27.034Z,52.40
2019-01-25T13:13:58.632Z,39.75
2019-01-25T13:16:27.243Z,35.35
2019-01-25T13:18:56.329Z,48.40
2019-01-25T13:21:27.935Z,38.90
2019-01-25T13:23:59.749Z,40.00
2019-01-25T13:26:28.671Z,44.95
2019-01-25T13:28:57.256Z,40.10
2019-01-25T13:31:28.836Z,44.73
2019-01-25T13:33:57.491Z,38.28
2019-01-25T13:36:26.104Z,44.90
2019-01-25T13:38:54.806Z,55.10
2019-01-25T13:41:27.398Z,61.45
2019-01-25T13:43:56.461Z,51.92
2019-01-25T13:46:25.116Z,44.00
2019-01-25T13:48:54.726Z,50.85
2019-01-25T13:51:23.356Z,45.00
2019-01-25T13:53:54.431Z,58.92
2019-01-25T13:56:25.723Z,50.15
2019-01-25T13:58:54.342Z,52.70
2019-01-25T14:01:24.927Z,55.25
2019-01-25T14:03:53.566Z,53.35
2019-01-25T14:06:22.125Z,58.15
2019-01-25T14:08:51.797Z,55.70
2019-01-25T14:11:25.981Z,69.92
2019-01-25T14:13:57.767Z,53.38
2019-01-25T14:16:26.438Z,54.45
2019-01-25T14:18:58.086Z,72.53
2019-01-25T14:21:29.707Z,67.05
2019-01-25T14:24:17.642Z,52.38
2019-01-25T14:26:46.216Z,64.15
2019-01-25T14:29:15.923Z,48.17
2019-01-25T14:31:44.967Z,50.50
2019-01-25T14:34:16.545Z,48.65
2019-01-25T14:36:45.217Z,52.75
2019-01-25T14:39:14.274Z,53.23
2019-01-25T14:41:42.994Z,52.60
2019-01-25T14:44:11.928Z,51.15
2019-01-25T14:46:40.539Z,63.28
2019-01-25T14:49:09.127Z,52.38
2019-01-25T14:51:38.013Z,49.67
2019-01-25T14:54:06.761Z,54.48
2019-01-25T14:56:35.666Z,51.65
2019-01-25T14:59:07.199Z,71.72
2019-01-25T15:01:38.577Z,57.98
2019-01-25T15:04:10.155Z,56.50
2019-01-25T15:06:38.767Z,59.40
2019-01-25T15:09:10.663Z,56.73
2019-01-25T15:11:41.952Z,61.10
2019-01-25T15:14:13.757Z,61.92
2019-01-25T15:16:42.380Z,54.98
2019-01-25T15:19:11.028Z,66.77
2019-01-25T15:21:43.010Z,66.92
2019-01-25T15:24:11.621Z,64.10
2019-01-25T15:26:40.222Z,72.27
2019-01-25T15:29:11.469Z,75.60
2019-01-25T15:31:42.865Z,66.15
2019-01-25T15:34:11.437Z,68.25
2019-01-25T15:36:42.778Z,58.92
2019-01-25T15:39:14.532Z,53.25
2019-01-25T15:41:43.326Z,56.37
2019-01-25T15:44:12.653Z,70.67
2019-01-25T15:46:41.415Z,69.45
2019-01-25T15:49:10.425Z,60.70
2019-01-25T15:51:39.343Z,60.55
2019-01-25T15:54:07.957Z,56.77
2019-01-25T15:56:36.501Z,55.48
2019-01-25T15:59:05.153Z,59.90
2019-01-25T16:01:37.001Z,62.70
2019-01-25T16:04:05.571Z,77.03
2019-01-25T16:06:34.167Z,59.42
2019-01-25T16:09:07.192Z,67.55
2019-01-25T16:11:35.790Z,62.05
2019-01-25T16:14:04.436Z,70.10
2019-01-25T16:16:36.023Z,60.40
2019-01-25T16:19:04.640Z,56.53
2019-01-25T16:21:33.289Z,64.00
2019-01-25T16:24:05.218Z,65.75
2019-01-25T16:26:33.949Z,65.20
2019-01-25T16:29:05.691Z,56.65
2019-01-25T16:31:37.325Z,64.90
2019-01-25T16:34:05.941Z,68.25
2019-01-25T16:36:37.548Z,56.92
2019-01-25T16:39:07.728Z,63.55
2019-01-25T16:41:36.761Z,62.65
2019-01-25T16:44:06.178Z,56.75
2019-01-25T16:46:34.834Z,59.23
2019-01-25T16:49:03.405Z,64.10
2019-01-25T16:51:31.990Z,66.87
2019-01-25T16:54:00.641Z,74.40
2019-01-25T16:56:29.352Z,66.00
2019-01-25T16:58:58.064Z,65.10
2019-01-25T17:01:26.895Z,54.98
2019-01-25T17:03:55.506Z,73.80
2019-01-25T17:06:24.062Z,50.98
2019-01-25T17:08:52.650Z,50.50
2019-01-25T17:11:23.666Z,68.75
2019-01-25T17:13:52.280Z,68.40
2019-01-25T17:16:20.982Z,57.30
2019-01-25T17:18:50.017Z,66.72
2019-01-25T17:21:18.626Z,71.02
2019-01-25T17:23:49.964Z,54.42
2019-01-25T17:26:18.991Z,57.95
2019-01-25T17:28:50.512Z,60.30
2019-01-25T17:31:23.557Z,57.75
2019-01-25T17:33:54.945Z,64.82
2019-01-25T17:36:23.555Z,59.23
2019-01-25T17:38:52.186Z,64.87
2019-01-25T17:41:23.961Z,54.85
2019-01-25T17:43:55.780Z,81.35
2019-01-25T17:46:24.538Z,65.60
2019-01-25T17:48:56.212Z,57.30
2019-01-25T17:51:27.587Z,51.30
2019-01-25T17:53:59.117Z,61.28
2019-01-25T17:56:28.183Z,58.33
2019-01-25T17:58:59.972Z,59.70
2019-01-25T18:01:28.684Z,58.38
2019-01-25T18:03:57.245Z,62.03
2019-01-25T18:06:25.928Z,47.30
2019-01-25T18:08:57.655Z,60.52
2019-01-25T18:11:26.357Z,65.25
2019-01-25T18:13:55.035Z,60.40
2019-01-25T18:16:25.258Z,59.30
2019-01-25T18:18:56.797Z,66.55
2019-01-25T18:21:25.458Z,60.75
2019-01-25T18:23:54.365Z,65.10
2019-01-25T18:26:24.486Z,66.42
2019-01-25T18:28:54.805Z,51.70
2019-01-25T18:31:27.872Z,61.40
2019-01-25T18:33:56.649Z,62.40
2019-01-25T18:36:25.256Z,72.03
2019-01-25T18:38:59.804Z,60.73
2019-01-25T18:41:28.483Z,69.30
2019-01-25T18:43:59.733Z,65.05
2019-01-25T18:46:28.340Z,72.42
2019-01-25T18:48:56.912Z,56.05
2019-01-25T18:51:25.522Z,62.15
2019-01-25T18:53:56.949Z,57.30
2019-01-25T18:56:25.662Z,60.03
2019-01-25T18:58:54.382Z,75.00
2019-01-25T19:01:25.951Z,67.03
2019-01-25T19:03:54.766Z,66.65
2019-01-25T19:06:23.477Z,67.25
2019-01-25T19:08:55.065Z,81.10
2019-01-25T19:11:25.656Z,61.00
2019-01-25T19:13:54.207Z,54.98
2019-01-25T19:16:24.323Z,65.87
2019-01-25T19:18:55.555Z,67.00
2019-01-25T19:21:24.227Z,68.33
2019-01-25T19:23:54.306Z,70.95
2019-01-25T19:26:24.440Z,61.08
2019-01-25T19:28:53.409Z,67.12
2019-01-25T19:31:22.557Z,65.75
2019-01-25T19:33:54.101Z,71.17
2019-01-25T19:36:24.420Z,66.50
2019-01-25T19:38:54.263Z,63.50
2019-01-25T19:41:24.869Z,59.63
2019-01-25T19:43:53.470Z,78.75
2019-01-25T19:46:22.404Z,70.57
2019-01-25T19:48:51.542Z,57.73
2019-01-25T19:51:20.149Z,71.57
2019-01-25T19:53:51.690Z,67.50
2019-01-25T19:56:20.261Z,75.72
2019-01-25T19:58:50.203Z,75.22
2019-01-25T20:01:23.427Z,77.05
2019-01-25T20:03:54.860Z,63.58
2019-01-25T20:06:23.848Z,69.80
2019-01-25T20:08:55.091Z,60.95
2019-01-25T20:11:26.676Z,70.57
2019-01-25T20:13:58.187Z,66.15
2019-01-25T20:16:29.475Z,60.78
2019-01-25T20:18:58.076Z,61.80
2019-01-25T20:21:26.651Z,66.22
2019-01-25T20:23:58.005Z,63.10
2019-01-25T20:26:26.615Z,55.40
2019-01-25T20:28:55.226Z,57.25
2019-01-25T20:31:30.292Z,68.05
2019-01-25T20:33:59.333Z,60.35
2019-01-25T20:36:27.940Z,53.00
2019-01-25T20:38:59.566Z,52.78
2019-01-25T20:41:31.110Z,45.20
2019-01-25T20:44:00.153Z,48.60
2019-01-25T20:46:31.945Z,46.65
2019-01-25T20:49:01.409Z,49.23
2019-01-25T20:51:32.750Z,52.27
2019-01-25T20:54:01.849Z,58.00
2019-01-25T20:56:30.911Z,52.60
2019-01-25T20:59:02.206Z,52.08
2019-01-25T21:01:31.051Z,54.75
2019-01-25T21:04:02.871Z,51.90
2019-01-25T21:06:34.414Z,42.98
2019-01-25T21:09:07.610Z,51.23
2019-01-25T21:11:39.135Z,51.28
2019-01-25T21:14:07.750Z,47.80
2019-01-25T21:16:39.138Z,55.20
2019-01-25T21:19:07.710Z,53.13
2019-01-25T21:21:36.341Z,58.17
2019-01-25T21:24:05.142Z,50.60
2019-01-25T21:26:37.007Z,60.50
2019-01-25T21:29:06.173Z,55.55
2019-01-25T21:31:37.965Z,44.73
2019-01-25T21:34:09.835Z,55.38
2019-01-25T21:36:40.106Z,47.88
2019-01-25T21:39:08.996Z,53.78
2019-01-25T21:41:37.610Z,56.15
2019-01-25T21:44:09.124Z,74.90
2019-01-25T21:46:40.374Z,57.40
2019-01-25T21:49:08.024Z,55.55
2019-01-25T21:51:39.345Z,44.93
2019-01-25T21:54:11.328Z,63.35
2019-01-25T21:56:39.940Z,52.27
2019-01-25T21:59:11.479Z,54.08
2019-01-25T22:01:40.222Z,63.38
2019-01-25T22:04:08.822Z,55.88
2019-01-25T22:06:40.672Z,54.77
2019-01-25T22:09:12.208Z,47.83
2019-01-25T22:11:40.838Z,69.10
2019-01-25T22:14:09.464Z,55.23
2019-01-25T22:16:41.276Z,62.05
2019-01-25T22:19:09.986Z,62.10
2019-01-25T22:21:38.630Z,54.90
2019-01-25T22:24:07.472Z,58.80
2019-01-25T22:26:36.808Z,54.15
2019-01-25T22:29:05.860Z,55.12
2019-01-25T22:31:34.911Z,54.13
2019-01-25T22:34:03.547Z,47.70
2019-01-25T22:36:34.843Z,61.65
2019-01-25T22:39:04.971Z,49.18
2019-01-25T22:41:34.020Z,57.23
2019-01-25T22:44:05.428Z,50.25
2019-01-25T22:46:34.517Z,57.58
2019-01-25T22:49:03.235Z,57.70
2019-01-25T22:51:35.168Z,59.95
2019-01-25T22:54:03.738Z,53.23
2019-01-25T22:56:35.073Z,53.02
2019-01-25T22:59:03.703Z,49.83
2019-01-25T23:01:35.373Z,55.23
2019-01-25T23:04:07.154Z,66.47
2019-01-25T23:06:41.585Z,62.10
2019-01-25T23:09:16.375Z,57.08
2019-01-25T23:11:45.742Z,57.48
2019-01-25T23:14:14.864Z,57.83
2019-01-25T23:16:47.367Z,61.30
2019-01-25T23:19:16.143Z,51.37
2019-01-25T23:21:48.685Z,46.00
2019-01-25T23:24:17.423Z,63.87
2019-01-25T23:26:48.913Z,57.13
2019-01-25T23:29:17.547Z,61.10
2019-01-25T23:31:46.179Z,66.82
2019-01-25T23:34:14.788Z,68.60
2019-01-25T23:36:46.253Z,46.42
2019-01-25T23:39:17.789Z,59.58
2019-01-25T23:41:46.441Z,65.10
2019-01-25T23:44:18.029Z,74.35
2019-01-25T23:46:46.845Z,55.15
2019-01-25T23:49:15.459Z,67.60
2019-01-25T23:51:46.835Z,54.27
2019-01-25T23:54:18.311Z,61.70
2019-01-25T23:56:47.027Z,57.83
2019-01-25T23:59:15.664Z,67.08
